Mustafa Dayi — TCZF2 — position and weather

sailwx.info

Track history (hours):
 
Tides and Currents Weather Stations Pressure Air Temp Water Temp Dewpoint Dewpoint Depression Visibility Wind Speed Wind Dir Waves Ship Positions

Mustafa Dayi

Last reported at 2016-May-30 00:33 UTC. Time now 2016-May-30 01:05 UTC.
Position N 32°49' E 035°01'.

Length 183 m; draft 9.3 m.

Type: Ship (hazmat cat A). MMSI: 271042433.

Date/timePositionNaut miles runAvg speedWind from/ knotsBaromVisibWave heightAir tempDewpointWater temp
2016-May-30 00:33N 32°49' E 035°01'0 0.0
2016-May-29 23:32N 32°49' E 035°01'0 0.0
2016-May-29 22:32N 32°49' E 035°01'0 0.0
2016-May-29 21:31N 32°49' E 035°01'0 0.0
2016-May-29 20:31N 32°49' E 035°01'0 0.0
2016-May-29 19:34N 32°49' E 035°01'0 0.0
2016-May-29 18:33N 32°49' E 035°01'2 2.2
2016-May-29 17:33N 32°51' E 034°60'4 3.8
2016-May-29 16:33N 32°53' E 034°56'1414.0
2016-May-29 15:34N 32°55' E 034°39'1615.5
2016-May-29 14:33N 32°59' E 034°21'1915.0
2016-May-29 13:16N 33°04' E 033°59'6513.5
2016-May-29 08:26N 34°07' E 034°17'  
2016-May-23 22:33N 40°41' E 028°48'1514.6
2016-May-23 21:33N 40°43' E 029°07'1313.2
2016-May-23 20:33N 40°45' E 029°24'10 0.6
2016-May-23 03:31N 40°45' E 029°38'1313.0
2016-May-23 02:33N 40°44' E 029°21'1313.0
2016-May-23 01:33N 40°46' E 029°04'0 0.4
2016-May-23 00:32N 40°47' E 029°05'0 0.3
2016-May-22 23:33N 40°47' E 029°05'0 0.4
2016-May-22 22:33N 40°47' E 029°05'1 0.6
2016-May-22 21:33N 40°46' E 029°06'1 0.6
2016-May-22 20:33N 40°46' E 029°07'1 0.8
2016-May-22 19:33N 40°45' E 029°07'1 0.8
2016-May-22 18:33N 40°45' E 029°08'1 0.7
2016-May-22 17:33N 40°45' E 029°09'1 0.7
2016-May-22 16:31N 40°45' E 029°10'1 1.0
2016-May-22 15:33N 40°44' E 029°11'1 1.2
2016-May-22 14:33N 40°44' E 029°13'2 1.9
2016-May-22 13:33N 40°44' E 029°10'1313.3
2016-May-22 12:33N 40°47' E 028°53'12 0.7
2016-May-21 20:32N 40°54' E 028°40'3310.9
2016-May-21 17:33N 40°26' E 029°02'2 1.9
2016-May-21 16:15N 40°25' E 029°05'0 0.0
2016-May-21 15:32N 40°25' E 029°05'0 0.0
2016-May-21 12:31N 40°25' E 029°05'  
Track history (hours):
 
Tides and Currents Weather Stations Pressure Air Temp Water Temp Dewpoint Dewpoint Depression Visibility Wind Speed Wind Dir Waves Ship Positions

Mustafa Dayi

Last reported at 2016-May-30 00:33 UTC. Time now 2016-May-30 01:05 UTC.
Position N 32°49' E 035°01'.

Length 183 m; draft 9.3 m.

Type: Ship (hazmat cat A). MMSI: 271042433.

Date/timePositionNaut miles runAvg speedWind from/ knotsBaromVisibWave heightAir tempDewpointWater temp
2016-May-30 00:33N 32°49' E 035°01'0 0.0
2016-May-29 23:32N 32°49' E 035°01'0 0.0
2016-May-29 22:32N 32°49' E 035°01'0 0.0
2016-May-29 21:31N 32°49' E 035°01'0 0.0
2016-May-29 20:31N 32°49' E 035°01'0 0.0
2016-May-29 19:34N 32°49' E 035°01'0 0.0
2016-May-29 18:33N 32°49' E 035°01'2 2.2
2016-May-29 17:33N 32°51' E 034°60'4 3.8
2016-May-29 16:33N 32°53' E 034°56'1414.0
2016-May-29 15:34N 32°55' E 034°39'1615.5
2016-May-29 14:33N 32°59' E 034°21'1915.0
2016-May-29 13:16N 33°04' E 033°59'6513.5
2016-May-29 08:26N 34°07' E 034°17'  
2016-May-23 22:33N 40°41' E 028°48'1514.6
2016-May-23 21:33N 40°43' E 029°07'1313.2
2016-May-23 20:33N 40°45' E 029°24'10 0.6
2016-May-23 03:31N 40°45' E 029°38'1313.0
2016-May-23 02:33N 40°44' E 029°21'1313.0
2016-May-23 01:33N 40°46' E 029°04'0 0.4
2016-May-23 00:32N 40°47' E 029°05'0 0.3
2016-May-22 23:33N 40°47' E 029°05'0 0.4
2016-May-22 22:33N 40°47' E 029°05'1 0.6
2016-May-22 21:33N 40°46' E 029°06'1 0.6
2016-May-22 20:33N 40°46' E 029°07'1 0.8
2016-May-22 19:33N 40°45' E 029°07'1 0.8
2016-May-22 18:33N 40°45' E 029°08'1 0.7
2016-May-22 17:33N 40°45' E 029°09'1 0.7
2016-May-22 16:31N 40°45' E 029°10'1 1.0
2016-May-22 15:33N 40°44' E 029°11'1 1.2
2016-May-22 14:33N 40°44' E 029°13'2 1.9
2016-May-22 13:33N 40°44' E 029°10'1313.3
2016-May-22 12:33N 40°47' E 028°53'12 0.7
2016-May-21 20:32N 40°54' E 028°40'3310.9
2016-May-21 17:33N 40°26' E 029°02'2 1.9
2016-May-21 16:15N 40°25' E 029°05'0 0.0
2016-May-21 15:32N 40°25' E 029°05'0 0.0
2016-May-21 12:31N 40°25' E 029°05'  

Dump ship's entire track history